createdAt,value
2023-02-18T00:02:04.716Z,13.72
2023-02-18T00:04:35.847Z,13.75
2023-02-18T00:07:07.451Z,13.72
2023-02-18T00:09:39.460Z,13.82
2023-02-18T00:12:10.620Z,13.87
2023-02-18T00:14:54.313Z,13.76
2023-02-18T00:17:25.201Z,13.81
2023-02-18T00:19:54.354Z,13.93
2023-02-18T00:22:25.110Z,13.93
2023-02-18T00:24:54.049Z,13.94
2023-02-18T00:27:24.997Z,13.87
2023-02-18T00:29:57.520Z,13.90
2023-02-18T00:32:31.245Z,13.94
2023-02-18T00:35:03.633Z,13.94
2023-02-18T00:37:35.582Z,13.89
2023-02-18T00:40:10.084Z,13.87
2023-02-18T00:42:38.641Z,13.83
2023-02-18T00:45:10.659Z,13.89
2023-02-18T00:47:44.554Z,13.93
2023-02-18T00:50:14.094Z,14.02
2023-02-18T00:52:42.169Z,13.86
2023-02-18T00:55:16.176Z,13.94
2023-02-18T00:57:46.744Z,13.86
2023-02-18T01:00:21.430Z,13.76
2023-02-18T01:02:56.940Z,13.97
2023-02-18T01:05:27.963Z,13.97
2023-02-18T01:08:01.624Z,13.94
2023-02-18T01:10:35.903Z,13.87
2023-02-18T01:13:06.917Z,14.02
2023-02-18T01:15:39.265Z,13.90
2023-02-18T01:18:16.287Z,13.94
2023-02-18T01:20:45.828Z,13.97
2023-02-18T01:23:23.634Z,13.91
2023-02-18T01:25:52.951Z,13.93
2023-02-18T01:28:25.350Z,13.97
2023-02-18T01:30:57.414Z,13.81
2023-02-18T01:33:35.267Z,13.86
2023-02-18T01:36:09.777Z,13.99
2023-02-18T01:38:43.061Z,13.82
2023-02-18T01:41:12.085Z,13.89
2023-02-18T01:43:41.254Z,14.10
2023-02-18T01:46:25.558Z,13.86
2023-02-18T01:49:04.528Z,13.98
2023-02-18T01:51:37.165Z,14.10
2023-02-18T01:54:12.472Z,13.95
2023-02-18T01:56:50.867Z,13.83
2023-02-18T01:59:26.233Z,13.96
2023-02-18T02:01:57.131Z,13.97
2023-02-18T02:04:27.214Z,13.90
2023-02-18T02:07:04.121Z,13.83
2023-02-18T02:09:45.568Z,13.86
2023-02-18T02:12:43.560Z,13.79
2023-02-18T02:15:37.137Z,13.98
2023-02-18T02:18:34.270Z,14.01
2023-02-18T02:21:50.160Z,13.91
2023-02-18T02:24:55.041Z,13.90
2023-02-18T02:27:28.731Z,14.01
2023-02-18T02:30:33.538Z,13.75
2023-02-18T02:33:50.068Z,13.61
2023-02-18T02:36:25.552Z,13.85
2023-02-18T02:38:58.619Z,13.88
2023-02-18T02:41:44.439Z,13.78
2023-02-18T02:44:32.202Z,13.71
2023-02-18T02:47:09.016Z,13.87
2023-02-18T02:49:42.821Z,13.86
2023-02-18T02:52:16.140Z,13.73
2023-02-18T02:54:48.571Z,13.77
2023-02-18T02:57:47.801Z,13.58
2023-02-18T03:00:36.026Z,13.70
2023-02-18T03:03:52.179Z,13.83
2023-02-18T03:06:45.444Z,13.76
2023-02-18T03:09:36.689Z,13.69
2023-02-18T03:12:10.888Z,13.77
2023-02-18T03:14:46.195Z,13.63
2023-02-18T03:17:27.478Z,13.72
2023-02-18T03:20:02.165Z,13.71
2023-02-18T03:22:33.847Z,13.74
2023-02-18T03:25:11.224Z,13.60
2023-02-18T03:27:48.062Z,13.76
2023-02-18T03:30:32.772Z,13.80
2023-02-18T03:33:06.124Z,13.76
2023-02-18T03:35:39.733Z,13.74
2023-02-18T03:38:17.229Z,13.76
2023-02-18T03:40:55.569Z,13.74
2023-02-18T03:43:33.140Z,13.75
2023-02-18T03:46:02.779Z,13.84
2023-02-18T03:48:34.233Z,13.66
2023-02-18T03:51:06.934Z,13.78
2023-02-18T03:53:35.884Z,13.67
2023-02-18T03:56:19.030Z,13.64
2023-02-18T03:58:56.291Z,13.62
2023-02-18T04:01:28.101Z,13.72
2023-02-18T04:04:08.731Z,13.53
2023-02-18T04:06:39.304Z,13.53
2023-02-18T04:09:10.514Z,13.61
2023-02-18T04:11:58.433Z,13.59
2023-02-18T04:14:35.450Z,13.55
2023-02-18T04:17:05.383Z,13.67
2023-02-18T04:19:33.885Z,13.60
2023-02-18T04:22:06.203Z,13.54
2023-02-18T04:24:37.232Z,13.54
2023-02-18T04:27:11.104Z,13.54
2023-02-18T04:29:44.819Z,13.51
2023-02-18T04:32:21.781Z,13.68
2023-02-18T04:34:52.199Z,13.65
2023-02-18T04:37:30.248Z,13.61
2023-02-18T04:39:59.167Z,13.57
2023-02-18T04:42:32.978Z,13.67
2023-02-18T04:45:02.267Z,13.48
2023-02-18T04:47:34.394Z,13.49
2023-02-18T04:50:05.030Z,13.58
2023-02-18T04:52:35.567Z,13.59
2023-02-18T04:55:06.291Z,13.71
2023-02-18T04:57:37.013Z,13.59
2023-02-18T05:00:08.203Z,13.54
2023-02-18T05:02:44.635Z,13.62
2023-02-18T05:05:13.908Z,13.69
2023-02-18T05:07:51.462Z,13.65
2023-02-18T05:10:20.985Z,13.62
2023-02-18T05:13:02.322Z,13.58
2023-02-18T05:15:32.007Z,13.70
2023-02-18T05:18:08.968Z,13.67
2023-02-18T05:20:38.239Z,13.56
2023-02-18T05:23:07.042Z,13.58
2023-02-18T05:25:39.711Z,13.49
2023-02-18T05:28:20.841Z,13.56
2023-02-18T05:30:50.353Z,13.46
2023-02-18T05:33:24.725Z,13.53
2023-02-18T05:36:04.588Z,13.50
2023-02-18T05:38:34.265Z,13.52
2023-02-18T05:41:04.612Z,13.52
2023-02-18T05:44:05.376Z,13.47
2023-02-18T05:46:36.958Z,13.50
2023-02-18T05:49:11.078Z,13.51
2023-02-18T05:51:40.017Z,13.51
2023-02-18T05:54:11.989Z,13.53
2023-02-18T05:56:41.385Z,13.50
2023-02-18T05:59:12.052Z,13.43
2023-02-18T06:01:48.732Z,13.42
2023-02-18T06:04:26.036Z,13.40
2023-02-18T06:06:55.982Z,13.51
2023-02-18T06:09:34.768Z,13.53
2023-02-18T06:12:07.687Z,13.52
2023-02-18T06:14:46.037Z,13.52
2023-02-18T06:17:15.852Z,13.53
2023-02-18T06:19:49.476Z,13.50
2023-02-18T06:22:20.599Z,13.45
2023-02-18T06:24:52.389Z,13.63
2023-02-18T06:27:23.121Z,13.56
2023-02-18T06:29:57.137Z,13.57
2023-02-18T06:32:26.693Z,13.48
2023-02-18T06:35:03.746Z,13.54
2023-02-18T06:37:34.701Z,13.53
2023-02-18T06:40:08.782Z,13.56
2023-02-18T06:42:38.384Z,13.57
2023-02-18T06:45:10.192Z,13.54
2023-02-18T06:47:47.703Z,13.48
2023-02-18T06:50:27.280Z,13.41
2023-02-18T06:52:59.720Z,13.36
2023-02-18T06:55:31.112Z,13.59
2023-02-18T06:58:02.738Z,13.55
2023-02-18T07:00:36.371Z,13.46
2023-02-18T07:03:07.799Z,13.40
2023-02-18T07:05:48.347Z,13.57
2023-02-18T07:08:18.576Z,13.60
2023-02-18T07:10:50.103Z,13.51
2023-02-18T07:13:21.708Z,13.50
2023-02-18T07:15:58.246Z,13.45
2023-02-18T07:18:29.877Z,13.49
2023-02-18T07:21:00.995Z,13.68
2023-02-18T07:23:42.521Z,13.46
2023-02-18T07:26:13.333Z,13.54
2023-02-18T07:28:43.742Z,13.47
2023-02-18T07:31:13.691Z,13.64
2023-02-18T07:33:45.253Z,13.59
2023-02-18T07:36:16.436Z,13.52
2023-02-18T07:38:50.838Z,13.66
2023-02-18T07:41:28.771Z,13.61
2023-02-18T07:44:02.781Z,13.77
2023-02-18T07:46:46.011Z,13.73
2023-02-18T07:49:18.497Z,13.74
2023-02-18T07:51:58.273Z,13.73
2023-02-18T07:54:29.085Z,13.65
2023-02-18T07:56:57.368Z,13.56
2023-02-18T07:59:31.270Z,13.66
2023-02-18T08:02:09.800Z,13.46
2023-02-18T08:04:48.349Z,13.62
2023-02-18T08:07:25.991Z,13.75
2023-02-18T08:09:55.197Z,13.59
2023-02-18T08:12:24.186Z,13.71
2023-02-18T08:14:56.058Z,13.47
2023-02-18T08:17:27.819Z,13.64
2023-02-18T08:19:58.899Z,13.59
2023-02-18T08:22:28.509Z,13.45
2023-02-18T08:24:57.407Z,13.58
2023-02-18T08:27:26.983Z,13.74
2023-02-18T08:29:57.477Z,13.74
2023-02-18T08:32:37.361Z,13.73
2023-02-18T08:35:15.174Z,13.76
2023-02-18T08:37:52.931Z,13.68
2023-02-18T08:40:31.043Z,13.72
2023-02-18T08:43:03.076Z,13.66
2023-02-18T08:45:36.097Z,13.55
2023-02-18T08:48:24.150Z,13.60
2023-02-18T08:50:56.093Z,13.51
2023-02-18T08:53:25.780Z,13.61
2023-02-18T08:56:01.535Z,13.58
2023-02-18T08:58:42.524Z,13.61
2023-02-18T09:01:20.727Z,13.69
2023-02-18T09:04:06.550Z,13.67
2023-02-18T09:06:38.853Z,13.81
2023-02-18T09:09:11.314Z,13.71
2023-02-18T09:11:40.305Z,13.76
2023-02-18T09:14:09.838Z,13.74
2023-02-18T09:16:39.215Z,13.73
2023-02-18T09:19:24.204Z,13.84
2023-02-18T09:21:55.475Z,13.75
2023-02-18T09:24:27.643Z,13.86
2023-02-18T09:26:57.576Z,13.88
2023-02-18T09:29:29.336Z,13.90
2023-02-18T09:32:02.569Z,13.83
2023-02-18T09:34:37.016Z,13.85
2023-02-18T09:37:08.094Z,13.74
2023-02-18T09:39:40.468Z,13.79
2023-02-18T09:42:14.988Z,13.90
2023-02-18T09:44:55.776Z,13.85
2023-02-18T09:47:31.740Z,13.87
2023-02-18T09:50:07.209Z,13.92
2023-02-18T09:52:39.373Z,13.97
2023-02-18T09:55:24.761Z,13.83
2023-02-18T09:57:59.582Z,13.83
2023-02-18T10:00:34.426Z,13.86
2023-02-18T10:03:06.460Z,13.97
2023-02-18T10:05:59.470Z,14.01
2023-02-18T10:08:30.089Z,13.84
2023-02-18T10:11:10.681Z,13.90
2023-02-18T10:13:39.857Z,13.87
2023-02-18T10:16:13.800Z,13.91
2023-02-18T10:18:46.385Z,13.83
2023-02-18T10:21:25.169Z,13.86
2023-02-18T10:23:59.191Z,13.93
2023-02-18T10:26:30.680Z,13.80
2023-02-18T10:29:00.658Z,13.91
2023-02-18T10:31:35.610Z,13.89
2023-02-18T10:34:13.002Z,14.01
2023-02-18T10:36:55.900Z,13.94
2023-02-18T10:40:10.419Z,13.93
2023-02-18T10:42:59.364Z,13.97
2023-02-18T10:45:43.098Z,14.14
2023-02-18T10:48:39.873Z,14.13
2023-02-18T10:51:16.272Z,14.20
2023-02-18T10:53:50.508Z,14.13
2023-02-18T10:56:46.565Z,14.19
2023-02-18T10:59:34.195Z,14.24
2023-02-18T11:02:14.907Z,14.24
2023-02-18T11:04:46.721Z,14.18
2023-02-18T11:07:17.662Z,14.21
2023-02-18T11:09:58.085Z,14.29
2023-02-18T11:12:33.668Z,14.25
2023-02-18T11:15:20.895Z,14.37
2023-02-18T11:17:55.363Z,14.55
2023-02-18T11:20:40.417Z,14.58
2023-02-18T11:23:30.268Z,14.44
2023-02-18T11:26:07.859Z,14.46
2023-02-18T11:28:48.736Z,14.51
2023-02-18T11:31:23.176Z,14.52
2023-02-18T11:34:03.212Z,14.54
2023-02-18T11:36:37.316Z,14.57
2023-02-18T11:39:08.537Z,14.62
2023-02-18T11:41:42.531Z,14.56
2023-02-18T11:44:22.125Z,14.63
2023-02-18T11:47:00.443Z,14.67
2023-02-18T11:49:31.338Z,14.66
2023-02-18T11:52:22.798Z,14.64
2023-02-18T11:55:09.547Z,14.70
2023-02-18T11:57:49.854Z,14.68
2023-02-18T12:00:25.290Z,14.68
2023-02-18T12:02:57.621Z,14.75
2023-02-18T12:05:29.615Z,14.88
2023-02-18T12:08:03.090Z,15.00
2023-02-18T12:10:37.884Z,14.97
2023-02-18T12:13:39.504Z,15.11
2023-02-18T12:16:23.121Z,15.13
2023-02-18T12:19:32.828Z,15.35
2023-02-18T12:22:06.827Z,15.32
2023-02-18T12:24:49.105Z,15.23
2023-02-18T12:27:26.899Z,15.11
2023-02-18T12:30:25.276Z,15.27
2023-02-18T12:33:01.280Z,15.32
2023-02-18T12:35:55.067Z,15.41
2023-02-18T12:38:50.606Z,15.47
2023-02-18T12:41:45.492Z,15.53
2023-02-18T12:45:01.245Z,15.56
2023-02-18T12:48:28.644Z,15.50
2023-02-18T12:51:12.638Z,15.76
2023-02-18T12:54:01.432Z,15.56
2023-02-18T12:57:03.102Z,15.70
2023-02-18T12:59:53.730Z,15.62
2023-02-18T13:02:41.174Z,15.71
2023-02-18T13:05:18.334Z,15.83
2023-02-18T13:08:24.992Z,15.87
2023-02-18T13:11:19.714Z,16.01
2023-02-18T13:14:00.319Z,16.00
2023-02-18T13:16:33.092Z,16.04
2023-02-18T13:19:12.200Z,16.06
2023-02-18T13:21:51.076Z,15.99
2023-02-18T13:24:37.003Z,16.11
2023-02-18T13:27:16.588Z,16.18
2023-02-18T13:29:54.816Z,16.45
2023-02-18T13:32:33.573Z,16.31
2023-02-18T13:35:09.820Z,16.27
2023-02-18T13:37:55.944Z,16.20
2023-02-18T13:40:30.634Z,16.21
2023-02-18T13:43:22.534Z,16.04
2023-02-18T13:46:15.972Z,16.03
2023-02-18T13:48:52.643Z,15.96
2023-02-18T13:51:33.921Z,15.92
2023-02-18T13:54:30.880Z,15.96
2023-02-18T13:57:05.884Z,15.96
2023-02-18T13:59:38.059Z,15.82
2023-02-18T14:02:32.673Z,15.91
2023-02-18T14:05:24.028Z,15.88
2023-02-18T14:07:54.452Z,15.93
2023-02-18T14:10:39.974Z,15.93
2023-02-18T14:13:41.407Z,15.98
2023-02-18T14:16:15.174Z,16.16
2023-02-18T14:19:01.505Z,16.07
2023-02-18T14:21:45.116Z,16.22
2023-02-18T14:24:14.610Z,16.15
2023-02-18T14:26:54.193Z,16.23
2023-02-18T14:29:31.735Z,16.21
2023-02-18T14:32:08.929Z,16.20
2023-02-18T14:35:17.609Z,16.28
2023-02-18T14:38:24.982Z,16.34
2023-02-18T14:41:41.621Z,16.37
2023-02-18T14:44:42.915Z,16.31
2023-02-18T14:47:31.539Z,16.27
2023-02-18T14:50:06.373Z,16.28
2023-02-18T14:52:39.955Z,16.25
2023-02-18T14:55:23.106Z,16.30
2023-02-18T14:58:00.342Z,16.35
2023-02-18T15:00:37.233Z,16.42
2023-02-18T15:06:31.284Z,16.41
2023-02-18T15:09:02.310Z,16.35
2023-02-18T15:11:40.729Z,16.30
2023-02-18T15:14:26.719Z,16.48
2023-02-18T15:16:57.696Z,16.27
2023-02-18T15:19:49.477Z,16.18
2023-02-18T15:22:25.653Z,16.19
2023-02-18T15:25:01.683Z,16.16
2023-02-18T15:27:34.194Z,16.06
2023-02-18T15:33:51.357Z,16.00
2023-02-18T15:36:31.499Z,16.04
2023-02-18T15:39:04.966Z,16.04
2023-02-18T15:41:34.090Z,15.87
2023-02-18T15:44:11.636Z,15.90
2023-02-18T15:46:41.404Z,15.97
2023-02-18T15:49:25.659Z,15.91
2023-02-18T15:52:14.753Z,15.93
2023-02-18T15:54:45.894Z,15.84
2023-02-18T15:57:20.831Z,15.70
2023-02-18T16:00:02.976Z,15.89
2023-02-18T16:02:37.025Z,15.76
2023-02-18T16:05:15.937Z,15.78
2023-02-18T16:08:19.175Z,15.75
2023-02-18T16:10:58.009Z,15.88
2023-02-18T16:13:37.270Z,15.77
2023-02-18T16:16:15.029Z,15.73
2023-02-18T16:18:49.721Z,15.76
2023-02-18T16:21:38.403Z,15.57
2023-02-18T16:24:33.350Z,15.52
2023-02-18T16:27:06.763Z,15.81
2023-02-18T16:29:39.322Z,15.53
2023-02-18T16:32:13.605Z,15.47
2023-02-18T16:34:49.135Z,15.48
2023-02-18T16:37:40.898Z,15.41
2023-02-18T16:40:33.457Z,15.46
2023-02-18T16:43:20.042Z,15.48
2023-02-18T16:45:58.562Z,15.55
2023-02-18T16:48:35.145Z,15.61
2023-02-18T16:51:08.768Z,15.30
2023-02-18T16:53:41.227Z,15.40
2023-02-18T16:56:21.486Z,15.38
2023-02-18T16:59:11.262Z,15.44
2023-02-18T17:01:49.550Z,15.43
2023-02-18T17:07:22.025Z,15.47
2023-02-18T17:10:04.636Z,15.44
2023-02-18T17:12:50.060Z,15.39
2023-02-18T17:15:31.611Z,15.27
2023-02-18T17:18:13.058Z,15.29
2023-02-18T17:20:42.927Z,15.32
2023-02-18T17:23:19.263Z,15.30
2023-02-18T17:26:13.375Z,15.37
2023-02-18T17:28:45.597Z,15.52
2023-02-18T17:31:27.493Z,15.49
2023-02-18T17:34:02.738Z,15.29
2023-02-18T17:36:45.967Z,15.41
2023-02-18T17:39:21.515Z,15.48
2023-02-18T17:41:55.160Z,15.41
2023-02-18T17:44:33.953Z,15.40
2023-02-18T17:47:15.464Z,15.38
2023-02-18T17:49:58.237Z,15.49
2023-02-18T17:52:32.537Z,15.46
2023-02-18T17:55:09.096Z,15.32
2023-02-18T17:57:48.939Z,15.28
2023-02-18T18:00:31.953Z,15.30
2023-02-18T18:03:11.338Z,15.28
2023-02-18T18:05:44.945Z,15.30
2023-02-18T18:08:24.031Z,15.28
2023-02-18T18:11:02.072Z,15.33
2023-02-18T18:13:37.514Z,15.22
2023-02-18T18:16:17.188Z,15.25
2023-02-18T18:18:51.588Z,15.21
2023-02-18T18:21:36.787Z,15.23
2023-02-18T18:24:08.078Z,15.21
2023-02-18T18:26:41.628Z,15.18
2023-02-18T18:29:34.023Z,15.23
2023-02-18T18:32:06.994Z,15.12
2023-02-18T18:34:49.454Z,15.22
2023-02-18T18:37:36.429Z,15.15
2023-02-18T18:40:12.507Z,15.13
2023-02-18T18:42:44.996Z,15.12
2023-02-18T18:45:23.289Z,15.19
2023-02-18T18:48:01.916Z,15.09
2023-02-18T18:50:42.596Z,14.99
2023-02-18T18:53:24.094Z,15.05
2023-02-18T18:56:20.219Z,15.13
2023-02-18T19:01:42.013Z,15.01
2023-02-18T19:04:23.306Z,15.14
2023-02-18T19:07:02.923Z,15.01
2023-02-18T19:09:35.234Z,15.03
2023-02-18T19:12:06.754Z,15.04
2023-02-18T19:14:49.007Z,15.00
2023-02-18T19:17:31.794Z,14.92
2023-02-18T19:20:05.596Z,15.03
2023-02-18T19:22:44.977Z,14.87
2023-02-18T19:25:15.935Z,14.79
2023-02-18T19:27:47.516Z,14.93
2023-02-18T19:30:31.733Z,14.84
2023-02-18T19:33:08.542Z,14.91
2023-02-18T19:35:46.378Z,14.90
2023-02-18T19:38:30.184Z,14.98
2023-02-18T19:41:13.685Z,14.88
2023-02-18T19:43:49.215Z,14.82
2023-02-18T19:46:23.175Z,14.77
2023-02-18T19:49:04.121Z,14.88
2023-02-18T19:51:44.393Z,14.83
2023-02-18T19:54:27.872Z,14.82
2023-02-18T19:56:59.956Z,14.83
2023-02-18T19:59:39.324Z,14.89
2023-02-18T20:02:15.362Z,14.96
2023-02-18T20:04:46.918Z,14.81
2023-02-18T20:07:39.813Z,14.85
2023-02-18T20:10:12.826Z,14.96
2023-02-18T20:12:43.617Z,14.71
2023-02-18T20:15:30.461Z,14.66
2023-02-18T20:18:01.411Z,14.71
2023-02-18T20:20:34.804Z,14.65
2023-02-18T20:23:06.554Z,14.82
2023-02-18T20:25:37.740Z,14.62
2023-02-18T20:28:10.143Z,14.59
2023-02-18T20:30:50.886Z,14.57
2023-02-18T20:33:30.988Z,14.46
2023-02-18T20:36:13.189Z,14.54
2023-02-18T20:38:54.330Z,14.54
2023-02-18T20:41:31.367Z,14.63
2023-02-18T20:44:08.270Z,14.55
2023-02-18T20:46:42.272Z,14.58
2023-02-18T20:49:26.572Z,14.54
2023-02-18T20:51:59.774Z,14.54
2023-02-18T20:54:45.004Z,14.71
2023-02-18T20:57:19.515Z,14.58
2023-02-18T20:59:51.676Z,14.60
2023-02-18T21:02:49.869Z,14.55
2023-02-18T21:05:29.042Z,14.51
2023-02-18T21:07:59.785Z,14.47
2023-02-18T21:10:44.920Z,14.46
2023-02-18T21:13:22.436Z,14.48
2023-02-18T21:15:56.137Z,14.47
2023-02-18T21:18:37.941Z,14.60
2023-02-18T21:21:11.435Z,14.48
2023-02-18T21:23:53.956Z,14.33
2023-02-18T21:26:31.268Z,14.49
2023-02-18T21:29:15.150Z,14.34
2023-02-18T21:32:05.423Z,14.37
2023-02-18T21:37:24.913Z,14.33
2023-02-18T21:39:55.406Z,14.41
2023-02-18T21:42:31.559Z,14.28
2023-02-18T21:45:03.028Z,14.41
2023-02-18T21:47:33.493Z,14.39
2023-02-18T21:50:03.659Z,14.43
2023-02-18T21:52:36.456Z,14.46
2023-02-18T21:55:06.877Z,14.42
2023-02-18T21:57:37.506Z,14.21
2023-02-18T22:00:20.068Z,14.38
2023-02-18T22:03:00.596Z,14.28
2023-02-18T22:05:35.737Z,14.38
2023-02-18T22:08:06.351Z,14.34
2023-02-18T22:10:42.726Z,14.37
2023-02-18T22:13:22.838Z,14.38
2023-02-18T22:16:02.176Z,14.28
2023-02-18T22:18:39.560Z,14.17
2023-02-18T22:21:10.786Z,14.35
2023-02-18T22:23:41.816Z,14.27
2023-02-18T22:26:11.418Z,14.30
2023-02-18T22:28:44.549Z,14.35
2023-02-18T22:31:14.360Z,14.16
2023-02-18T22:33:49.312Z,14.21
2023-02-18T22:36:22.603Z,14.05
2023-02-18T22:38:56.125Z,14.26
2023-02-18T22:41:27.574Z,14.26
2023-02-18T22:44:08.381Z,14.18
2023-02-18T22:46:45.838Z,14.25
2023-02-18T22:49:20.168Z,14.32
2023-02-18T22:51:55.999Z,14.14
2023-02-18T22:54:25.367Z,14.19
2023-02-18T22:57:02.407Z,14.04
2023-02-18T22:59:36.024Z,14.10
2023-02-18T23:02:04.962Z,14.04
2023-02-18T23:04:38.245Z,14.15
2023-02-18T23:07:15.172Z,14.12
2023-02-18T23:09:46.653Z,14.07
2023-02-18T23:12:16.657Z,14.09
2023-02-18T23:14:59.053Z,14.39
2023-02-18T23:17:28.161Z,14.26
2023-02-18T23:19:59.694Z,14.07
2023-02-18T23:22:36.691Z,13.99
2023-02-18T23:25:08.605Z,14.03
2023-02-18T23:27:40.451Z,14.13
2023-02-18T23:30:14.374Z,14.11
2023-02-18T23:32:43.881Z,14.20
2023-02-18T23:35:23.371Z,14.19
2023-02-18T23:38:09.112Z,14.00
2023-02-18T23:40:39.767Z,14.32
2023-02-18T23:43:09.356Z,14.25
2023-02-18T23:45:47.319Z,14.19
2023-02-18T23:48:17.274Z,14.23
2023-02-18T23:50:49.398Z,14.06
2023-02-18T23:53:22.459Z,14.18
2023-02-18T23:55:51.383Z,14.19
2023-02-18T23:58:21.491Z,14.40
